Barlow, Kentucky
Current Conditions -  °F | °C
As of 4:35 PM on Monday 24 Nov 2014 (Local Time) from KCIR Reporting Station
Scattered Clouds Scattered Clouds  
Wind Chill: 52°   Ceiling: Unl
Heat Index: 52°   Visibility: 10mi
Dew Point: 32°   Wind: 6mph
Humidity: 47%   Direction: 230°SW
Pressure: 29.86"   Gusts: NA
Location:  37.05°N, 89.05°W
Report Text: KCIR 242235Z AUTO 23005KT 10SM SCT060 11/00 A2986 RMK AO2 T01110000
Loading
Personal Weather Stations






























Interactive Weather Map New forecast layout! Learn more

10-Day Weather Forecast

Advertisements
Track Severe Weather on mobile